createdAt,value
2018-12-11T00:01:46.596Z,100807.09
2018-12-11T00:04:53.450Z,100799.90
2018-12-11T00:08:00.129Z,100799.46
2018-12-11T00:11:19.919Z,100804.48
2018-12-11T00:14:27.017Z,100802.80
2018-12-11T00:17:34.321Z,100807.89
2018-12-11T00:20:40.998Z,100820.56
2018-12-11T00:23:59.901Z,100807.38
2018-12-11T00:27:06.684Z,100812.47
2018-12-11T00:30:13.865Z,100810.28
2018-12-11T00:33:20.643Z,100818.38
2018-12-11T00:36:39.704Z,100811.20
2018-12-11T00:39:46.472Z,100817.98
2018-12-11T00:42:53.242Z,100813.34
2018-12-11T00:46:12.393Z,100810.83
2018-12-11T00:49:19.114Z,100813.37
2018-12-11T00:52:26.054Z,100822.23
2018-12-11T00:55:41.973Z,100826.91
2018-12-11T00:58:51.594Z,100826.48
2018-12-11T01:01:58.633Z,100829.42
2018-12-11T01:05:05.809Z,100839.59
2018-12-11T01:08:25.713Z,100841.30
2018-12-11T01:11:32.502Z,100842.97
2018-12-11T01:14:51.629Z,100843.83
2018-12-11T01:17:58.308Z,100847.25
2018-12-11T01:21:16.818Z,100850.22
2018-12-11T01:24:23.578Z,100853.60
2018-12-11T01:27:30.337Z,100857.02
2018-12-11T01:30:51.915Z,100860.45
2018-12-11T01:33:58.583Z,100868.08
2018-12-11T01:37:05.255Z,100872.30
2018-12-11T01:40:24.161Z,100871.49
2018-12-11T01:43:30.841Z,100877.41
2018-12-11T01:46:38.407Z,100878.28
2018-12-11T01:49:45.450Z,100882.50
2018-12-11T01:52:52.645Z,100886.73
2018-12-11T01:55:58.630Z,100879.95
2018-12-11T01:59:05.522Z,100879.12
2018-12-11T02:02:12.190Z,100876.20
2018-12-11T02:05:18.754Z,100874.47
2018-12-11T02:08:25.524Z,100875.30
2018-12-11T02:11:32.434Z,100885.91
2018-12-11T02:14:39.634Z,100883.52
2018-12-11T02:17:58.570Z,100885.95
2018-12-11T02:21:05.370Z,100883.00
2018-12-11T02:24:12.052Z,100893.16
2018-12-11T02:27:31.205Z,100901.34
2018-12-11T02:30:38.087Z,100899.81
2018-12-11T02:33:45.091Z,100904.05
2018-12-11T02:36:52.182Z,100905.41
2018-12-11T02:40:13.093Z,100912.22
2018-12-11T02:43:19.767Z,100907.58
2018-12-11T02:46:26.671Z,100913.20
2018-12-11T02:49:45.753Z,100910.30
2018-12-11T02:52:52.534Z,100909.90
2018-12-11T02:55:59.329Z,100917.11
2018-12-11T02:59:18.442Z,100919.27
2018-12-11T03:02:25.209Z,100922.70
2018-12-11T03:05:31.885Z,100916.43
2018-12-11T03:08:38.581Z,100924.94
2018-12-11T03:11:45.254Z,100930.42
2018-12-11T03:14:52.018Z,100928.80
2018-12-11T03:18:11.148Z,100937.60
2018-12-11T03:21:17.803Z,100939.86
2018-12-11T03:24:24.914Z,100950.46
2018-12-11T03:27:43.779Z,100945.89
2018-12-11T03:30:51.199Z,100950.97
2018-12-11T03:33:57.987Z,100961.88
2018-12-11T03:37:04.751Z,100950.98
2018-12-11T03:40:24.222Z,100947.63
2018-12-11T03:43:31.008Z,100958.24
2018-12-11T03:46:38.523Z,100964.17
2018-12-11T03:49:45.404Z,100967.50
2018-12-11T03:52:52.323Z,100968.93
2018-12-11T03:55:59.334Z,100966.34
2018-12-11T03:59:18.619Z,100963.42
2018-12-11T04:02:25.441Z,100966.44
2018-12-11T04:05:32.508Z,100960.13
2018-12-11T04:08:39.394Z,100961.00
2018-12-11T04:11:59.062Z,100963.55
2018-12-11T04:15:18.291Z,100968.24
2018-12-11T04:18:24.969Z,100976.23
2018-12-11T04:21:32.035Z,100973.75
2018-12-11T04:24:50.918Z,100970.34
2018-12-11T04:27:57.693Z,100980.55
2018-12-11T04:31:04.358Z,100983.51
2018-12-11T04:34:11.018Z,100981.02
2018-12-11T04:37:17.949Z,100985.20
2018-12-11T04:40:24.719Z,100982.72
2018-12-11T04:43:43.658Z,100992.44
2018-12-11T04:46:51.839Z,100985.73
2018-12-11T04:49:58.607Z,100998.84
2018-12-11T04:53:05.266Z,100997.59
2018-12-11T04:56:12.030Z,100998.03
2018-12-11T04:59:18.785Z,101000.55
2018-12-11T05:02:38.029Z,101010.77
2018-12-11T05:05:44.816Z,101013.30
2018-12-11T05:08:51.486Z,101019.60
2018-12-11T05:12:11.141Z,101025.19
2018-12-11T05:15:17.796Z,101031.52
2018-12-11T05:18:24.798Z,101024.34
2018-12-11T05:21:31.451Z,101026.86
2018-12-11T05:24:50.644Z,101022.28
2018-12-11T05:27:57.450Z,101029.06
2018-12-11T05:31:04.638Z,101045.09
2018-12-11T05:34:11.437Z,101031.16
2018-12-11T05:37:30.477Z,101048.08
2018-12-11T05:40:37.255Z,101044.74
2018-12-11T05:43:44.234Z,101048.94
2018-12-11T05:47:09.147Z,101049.81
2018-12-11T05:50:15.907Z,101045.12
2018-12-11T05:53:22.670Z,101049.85
2018-12-11T05:56:44.580Z,101050.30
2018-12-11T05:59:51.242Z,101050.70
2018-12-11T06:02:57.902Z,101054.95
2018-12-11T06:06:16.850Z,101055.33
2018-12-11T06:09:23.617Z,101058.77
2018-12-11T06:12:30.817Z,101064.22
2018-12-11T06:15:37.590Z,101066.36
2018-12-11T06:18:56.713Z,101063.41
2018-12-11T06:22:03.414Z,101069.36
2018-12-11T06:25:10.171Z,101068.11
2018-12-11T06:28:16.845Z,101079.95
2018-12-11T06:31:23.499Z,101082.48
2018-12-11T06:34:30.257Z,101089.70
2018-12-11T06:37:49.434Z,101093.51
2018-12-11T06:40:56.190Z,101089.33
2018-12-11T06:44:02.850Z,101101.09
2018-12-11T06:47:22.114Z,101104.91
2018-12-11T06:50:28.784Z,101104.51
2018-12-11T06:53:35.793Z,101108.75
2018-12-11T06:56:54.815Z,101113.42
2018-12-11T07:00:01.470Z,101113.80
2018-12-11T07:03:08.430Z,101120.58
2018-12-11T07:06:15.499Z,101128.23
2018-12-11T07:09:21.470Z,101136.26
2018-12-11T07:12:28.213Z,101138.75
2018-12-11T07:15:34.970Z,101137.50
2018-12-11T07:18:56.707Z,101139.60
2018-12-11T07:22:03.809Z,101140.06
2018-12-11T07:25:10.047Z,101139.22
2018-12-11T07:28:16.830Z,101140.04
2018-12-11T07:31:23.614Z,101151.02
2018-12-11T07:34:31.070Z,101152.66
2018-12-11T07:37:38.154Z,101150.56
2018-12-11T07:40:51.519Z,101155.68
2018-12-11T07:43:58.285Z,101162.00
2018-12-11T07:47:17.490Z,101178.03
2018-12-11T07:50:24.362Z,101181.87
2018-12-11T07:53:44.591Z,101178.09
2018-12-11T07:56:50.529Z,101183.59
2018-12-11T07:59:57.303Z,101181.05
2018-12-11T08:03:04.391Z,101188.65
2018-12-11T08:06:10.305Z,101195.82
2018-12-11T08:09:17.098Z,101197.48
2018-12-11T08:12:24.194Z,101199.63
2018-12-11T08:15:30.859Z,101202.56
2018-12-11T08:18:51.186Z,101213.49
2018-12-11T08:21:57.958Z,101212.66
2018-12-11T08:25:05.121Z,101229.56
2018-12-11T08:28:11.783Z,101232.08
2018-12-11T08:31:18.547Z,101236.73
2018-12-11T08:34:25.343Z,101238.38
2018-12-11T08:37:44.501Z,101233.31
2018-12-11T08:40:51.175Z,101237.53
2018-12-11T08:44:09.963Z,101245.09
2018-12-11T08:47:16.755Z,101244.18
2018-12-11T08:50:23.759Z,101247.14
2018-12-11T08:53:30.667Z,101245.84
2018-12-11T08:56:37.338Z,101251.78
2018-12-11T08:59:44.047Z,101247.55
2018-12-11T09:02:50.727Z,101258.91
2018-12-11T09:06:15.467Z,101273.24
2018-12-11T09:09:22.254Z,101270.73
2018-12-11T09:12:29.139Z,101272.81
2018-12-11T09:15:48.129Z,101278.31
2018-12-11T09:18:55.421Z,101280.02
2018-12-11T09:22:02.149Z,101275.33
2018-12-11T09:25:09.153Z,101273.67
2018-12-11T09:28:15.927Z,101276.55
2018-12-11T09:31:22.731Z,101275.26
2018-12-11T09:34:29.408Z,101269.75
2018-12-11T09:37:36.100Z,101270.97
2018-12-11T09:40:55.273Z,101273.48
2018-12-11T09:44:01.951Z,101281.06
2018-12-11T09:47:21.175Z,101286.50
2018-12-11T09:50:28.354Z,101289.88
2018-12-11T09:53:35.102Z,101286.88
2018-12-11T09:56:41.775Z,101293.19
2018-12-11T10:00:01.565Z,101296.09
2018-12-11T10:03:21.073Z,101293.53
2018-12-11T10:06:27.850Z,101299.41
2018-12-11T10:09:34.871Z,101301.49
2018-12-11T10:12:54.490Z,101306.12
2018-12-11T10:16:13.626Z,101306.12
2018-12-11T10:19:20.869Z,101307.73
2018-12-11T10:22:27.877Z,101309.86
2018-12-11T10:25:34.642Z,101304.77
2018-12-11T10:28:41.415Z,101306.00
2018-12-11T10:31:48.074Z,101307.19
2018-12-11T10:34:54.975Z,101307.59
2018-12-11T10:38:01.751Z,101305.87
2018-12-11T10:41:20.862Z,101312.59
2018-12-11T10:44:27.654Z,101309.59
2018-12-11T10:47:34.334Z,101315.94
2018-12-11T10:50:56.480Z,101318.45
2018-12-11T10:54:03.162Z,101323.06
2018-12-11T10:57:09.824Z,101322.17
2018-12-11T11:00:34.459Z,101328.49
2018-12-11T11:03:41.251Z,101320.02
2018-12-11T11:06:48.028Z,101324.21
2018-12-11T11:09:54.718Z,101341.95
2018-12-11T11:13:13.882Z,101330.90
2018-12-11T11:16:20.564Z,101337.26
2018-12-11T11:19:27.662Z,101340.62
2018-12-11T11:22:47.338Z,101338.87
2018-12-11T11:26:07.198Z,101342.23
2018-12-11T11:29:14.283Z,101340.53
2018-12-11T11:32:20.936Z,101338.37
2018-12-11T11:35:27.606Z,101343.01
2018-12-11T11:38:46.662Z,101344.26
2018-12-11T11:41:53.430Z,101351.00
2018-12-11T11:45:00.186Z,101347.59
2018-12-11T11:48:19.379Z,101348.02
2018-12-11T11:51:26.249Z,101344.59
2018-12-11T11:54:32.939Z,101340.73
2018-12-11T11:57:52.081Z,101350.02
2018-12-11T12:00:58.826Z,101357.20
2018-12-11T12:04:05.486Z,101358.86
2018-12-11T12:07:12.146Z,101363.50
2018-12-11T12:10:19.470Z,101360.50
2018-12-11T12:13:26.126Z,101362.63
2018-12-11T12:16:32.800Z,101375.70
2018-12-11T12:19:52.021Z,101369.31
2018-12-11T12:22:58.873Z,101376.06
2018-12-11T12:26:15.598Z,101381.56
2018-12-11T12:29:22.563Z,101380.70
2018-12-11T12:32:29.210Z,101390.40
2018-12-11T12:35:48.268Z,101389.54
2018-12-11T12:38:55.030Z,101388.67
2018-12-11T12:42:01.802Z,101394.58
2018-12-11T12:45:20.965Z,101394.14
2018-12-11T12:48:27.626Z,101390.73
2018-12-11T12:51:46.422Z,101397.95
2018-12-11T12:54:53.178Z,101402.19
2018-12-11T12:57:59.834Z,101395.84
2018-12-11T13:01:19.125Z,101403.02
2018-12-11T13:04:25.794Z,101405.56
2018-12-11T13:07:32.758Z,101406.37
2018-12-11T13:10:51.795Z,101409.76
2018-12-11T13:13:59.229Z,101415.25
2018-12-11T13:17:05.922Z,101415.25
2018-12-11T13:20:12.693Z,101419.91
2018-12-11T13:23:31.678Z,101420.73
2018-12-11T13:26:38.355Z,101424.95
2018-12-11T13:29:57.158Z,101433.02
2018-12-11T13:33:04.260Z,101431.34
2018-12-11T13:36:11.614Z,101441.50
2018-12-11T13:39:18.374Z,101435.56
2018-12-11T13:42:25.040Z,101448.27
2018-12-11T13:45:31.719Z,101439.37
2018-12-11T13:48:38.605Z,101446.16
2018-12-11T13:51:45.822Z,101448.70
2018-12-11T13:54:52.574Z,101456.74
2018-12-11T13:58:17.018Z,101456.31
2018-12-11T14:01:23.802Z,101463.10
2018-12-11T14:04:30.591Z,101460.13
2018-12-11T14:07:49.696Z,101464.37
2018-12-11T14:10:56.462Z,101466.94
2018-12-11T14:14:03.695Z,101465.67
2018-12-11T14:17:10.451Z,101469.48
2018-12-11T14:20:29.629Z,101474.13
2018-12-11T14:23:37.698Z,101474.55
2018-12-11T14:26:45.218Z,101477.53
2018-12-11T14:29:51.986Z,101487.27
2018-12-11T14:33:11.133Z,101483.89
2018-12-11T14:36:17.902Z,101494.05
2018-12-11T14:39:24.732Z,101497.45
2018-12-11T14:42:43.842Z,101497.45
2018-12-11T14:45:50.605Z,101497.48
2018-12-11T14:48:57.362Z,101501.30
2018-12-11T14:52:16.574Z,101498.75
2018-12-11T14:55:23.582Z,101509.34
2018-12-11T14:58:30.253Z,101508.06
2018-12-11T15:01:49.229Z,101506.80
2018-12-11T15:04:55.898Z,101502.98
2018-12-11T15:08:14.759Z,101505.95
2018-12-11T15:11:21.485Z,101506.36
2018-12-11T15:14:28.269Z,101514.00
2018-12-11T15:17:47.390Z,101507.20
2018-12-11T15:20:54.043Z,101508.92
2018-12-11T15:24:01.107Z,101511.04
2018-12-11T15:27:20.089Z,101506.41
2018-12-11T15:30:27.306Z,101509.75
2018-12-11T15:33:33.961Z,101508.06
2018-12-11T15:36:52.759Z,101512.75
2018-12-11T15:39:59.402Z,101509.77
2018-12-11T15:43:06.577Z,101515.77
2018-12-11T15:46:20.068Z,101518.75
2018-12-11T15:49:42.611Z,101519.97
2018-12-11T15:52:52.355Z,101521.23
2018-12-11T15:56:14.208Z,101520.42
2018-12-11T15:59:20.878Z,101519.98
2018-12-11T16:02:27.541Z,101522.55
2018-12-11T16:05:48.897Z,101527.19
2018-12-11T16:08:56.234Z,101526.77
2018-12-11T16:12:15.533Z,101531.45
2018-12-11T16:15:22.205Z,101530.18
2018-12-11T16:18:41.038Z,101534.42
2018-12-11T16:21:47.814Z,101538.24
2018-12-11T16:24:54.890Z,101536.98
2018-12-11T16:28:01.707Z,101540.81
2018-12-11T16:31:20.914Z,101543.37
2018-12-11T16:34:27.923Z,101542.92
2018-12-11T16:37:35.339Z,101541.24
2018-12-11T16:40:42.103Z,101550.98
2018-12-11T16:43:49.010Z,101546.34
2018-12-11T16:47:08.014Z,101548.02
2018-12-11T16:50:14.705Z,101551.43
2018-12-11T16:53:45.000Z,101550.16
2018-12-11T16:56:56.929Z,101562.45
2018-12-11T17:00:14.252Z,101562.02
2018-12-11T17:03:21.450Z,101570.52
2018-12-11T17:06:40.918Z,101566.70
2018-12-11T17:09:47.895Z,101577.75
2018-12-11T17:13:04.366Z,101582.89
2018-12-11T17:16:26.714Z,101585.52
2018-12-11T17:19:39.403Z,101584.27
2018-12-11T17:22:46.843Z,101589.34
2018-12-11T17:26:06.278Z,101602.12
2018-12-11T17:29:13.141Z,101605.94
2018-12-11T17:32:19.946Z,101613.22
2018-12-11T17:35:26.757Z,101615.83
2018-12-11T17:38:33.650Z,101618.80
2018-12-11T17:41:40.404Z,101618.02
2018-12-11T17:44:47.065Z,101620.14
2018-12-11T17:47:53.839Z,101628.20
2018-12-11T17:51:13.739Z,101629.05
2018-12-11T17:54:36.050Z,101635.00
2018-12-11T17:57:42.717Z,101639.22
2018-12-11T18:01:01.830Z,101651.94
2018-12-11T18:04:08.678Z,101647.23
2018-12-11T18:07:15.443Z,101659.56
2018-12-11T18:10:22.205Z,101660.41
2018-12-11T18:13:41.410Z,101656.20
2018-12-11T18:16:48.486Z,101661.69
2018-12-11T18:19:55.146Z,101667.22
2018-12-11T18:23:02.611Z,101666.72
2018-12-11T18:26:09.495Z,101663.83
2018-12-11T18:29:25.018Z,101674.39
2018-12-11T18:32:31.663Z,101668.45
2018-12-11T18:35:50.466Z,101669.27
2018-12-11T18:38:57.151Z,101665.45
2018-12-11T18:42:16.058Z,101667.55
2018-12-11T18:45:23.145Z,101671.36
2018-12-11T18:48:29.817Z,101671.81
2018-12-11T18:51:48.713Z,101678.59
2018-12-11T18:54:55.491Z,101677.28
2018-12-11T18:58:02.302Z,101683.23
2018-12-11T19:01:21.410Z,101689.19
2018-12-11T19:04:28.190Z,101685.83
2018-12-11T19:07:35.047Z,101694.70
2018-12-11T19:10:54.105Z,101699.36
2018-12-11T19:14:01.081Z,101702.76
2018-12-11T19:17:08.171Z,101707.84
2018-12-11T19:20:15.098Z,101709.12
2018-12-11T19:23:42.989Z,101717.56
2018-12-11T19:27:01.846Z,101722.64
2018-12-11T19:30:08.976Z,101724.70
2018-12-11T19:33:16.072Z,101728.53
2018-12-11T19:36:22.718Z,101727.23
2018-12-11T19:39:41.762Z,101727.66
2018-12-11T19:42:48.733Z,101734.04
2018-12-11T19:45:55.510Z,101739.95
2018-12-11T19:49:14.481Z,101740.78
2018-12-11T19:52:21.145Z,101740.36
2018-12-11T19:55:28.431Z,101728.90
2018-12-11T19:58:35.919Z,101733.12
2018-12-11T20:01:42.678Z,101727.63
2018-12-11T20:05:00.090Z,101731.03
2018-12-11T20:08:07.252Z,101736.98
2018-12-11T20:11:14.694Z,101740.80
2018-12-11T20:14:21.644Z,101747.20
2018-12-11T20:17:28.399Z,101739.11
2018-12-11T20:20:35.146Z,101737.85
2018-12-11T20:23:41.793Z,101743.36
2018-12-11T20:26:48.556Z,101744.66
2018-12-11T20:29:55.463Z,101740.84
2018-12-11T20:33:02.395Z,101743.38
2018-12-11T20:36:21.585Z,101751.82
2018-12-11T20:39:28.650Z,101752.69
2018-12-11T20:42:35.401Z,101754.40
2018-12-11T20:45:42.156Z,101751.87
2018-12-11T20:48:49.233Z,101751.89
2018-12-11T20:51:55.938Z,101753.16
2018-12-11T20:55:02.714Z,101762.04
2018-12-11T20:58:09.669Z,101760.75
2018-12-11T21:01:28.738Z,101754.39
2018-12-11T21:04:35.403Z,101761.58
2018-12-11T21:08:00.244Z,101764.14
2018-12-11T21:11:07.010Z,101769.64
2018-12-11T21:14:14.036Z,101774.30
2018-12-11T21:17:20.830Z,101770.53
2018-12-11T21:20:40.146Z,101774.36
2018-12-11T21:23:46.822Z,101781.55
2018-12-11T21:26:54.231Z,101783.68
2018-12-11T21:30:01.003Z,101785.80
2018-12-11T21:33:07.995Z,101791.30
2018-12-11T21:36:27.398Z,101790.47
2018-12-11T21:39:34.184Z,101790.44
2018-12-11T21:42:40.955Z,101802.28
2018-12-11T21:45:48.063Z,101803.58
2018-12-11T21:49:07.246Z,101801.03
2018-12-11T21:52:13.902Z,101808.67
2018-12-11T21:55:21.099Z,101812.06
2018-12-11T21:58:27.202Z,101816.30
2018-12-11T22:01:33.994Z,101816.29
2018-12-11T22:04:40.854Z,101816.72
2018-12-11T22:07:59.927Z,101816.70
2018-12-11T22:11:07.071Z,101820.95
2018-12-11T22:14:13.942Z,101821.80
2018-12-11T22:17:20.613Z,101822.63
2018-12-11T22:20:36.395Z,101819.26
2018-12-11T22:23:43.046Z,101821.80
2018-12-11T22:26:49.779Z,101827.30
2018-12-11T22:30:09.549Z,101828.14
2018-12-11T22:33:29.335Z,101827.28
2018-12-11T22:36:36.088Z,101834.48
2018-12-11T22:39:42.102Z,101832.80
2018-12-11T22:42:48.745Z,101836.20
2018-12-11T22:45:55.827Z,101835.75
2018-12-11T22:49:02.853Z,101829.83
2018-12-11T22:52:09.748Z,101833.22
2018-12-11T22:55:28.916Z,101835.75
2018-12-11T22:58:35.591Z,101834.48
2018-12-11T23:01:54.646Z,101846.33
2018-12-11T23:05:01.332Z,101853.54
2018-12-11T23:08:08.061Z,101855.23
2018-12-11T23:11:27.043Z,101856.94
2018-12-11T23:14:33.798Z,101856.52
2018-12-11T23:17:40.553Z,101860.30
2018-12-11T23:21:00.142Z,101860.73
2018-12-11T23:24:19.602Z,101865.41
2018-12-11T23:27:26.286Z,101870.05
2018-12-11T23:30:33.224Z,101867.51
2018-12-11T23:33:57.827Z,101875.13
2018-12-11T23:37:05.001Z,101871.76
2018-12-11T23:40:12.254Z,101875.57
2018-12-11T23:43:18.908Z,101870.47
2018-12-11T23:46:25.661Z,101876.81
2018-12-11T23:49:44.953Z,101877.23
2018-12-11T23:52:51.615Z,101869.64
2018-12-11T23:55:58.576Z,101872.59
2018-12-11T23:59:17.595Z,101873.02
